Time;durP1;ratioP1;P1;durP2;ratioP2;P2;SDS_P1;SDS_P2;PMS_P1;PMS_P2;Temp;Humidity;BMP_temperature;BMP_pressure;BME280_temperature;BME280_humidity;BME280_pressure;Samples;Min_cycle;Max_cycle;Signal;HPM_P1;HPM_P2
2020/12/17 00:00:12;;;;;;;37.63;25.27;;;4.90;99.90;;;;;;5027488;28;20535;-74
2020/12/17 00:02:39;;;;;;;37.83;27.27;;;4.80;99.90;;;;;;5027172;28;20484;-73
2020/12/17 00:05:06;;;;;;;36.50;26.43;;;4.80;99.90;;;;;;5020820;28;20564;-73
2020/12/17 00:07:33;;;;;;;31.43;24.97;;;4.90;99.90;;;;;;5028110;28;20452;-75
2020/12/17 00:09:59;;;;;;;30.53;23.20;;;4.80;99.90;;;;;;5026977;28;21512;-73
2020/12/17 00:12:25;;;;;;;32.00;22.73;;;4.80;99.90;;;;;;5028331;28;20571;-74
2020/12/17 00:14:52;;;;;;;31.87;24.73;;;4.80;99.90;;;;;;5027759;28;20599;-73
2020/12/17 00:17:18;;;;;;;31.37;23.63;;;4.80;99.90;;;;;;5028185;28;20457;-73
2020/12/17 00:19:44;;;;;;;28.17;23.07;;;4.80;99.90;;;;;;5027150;28;20531;-73
2020/12/17 00:22:12;;;;;;;29.60;21.07;;;4.70;99.90;;;;;;5027575;28;20463;-74
2020/12/17 00:24:38;;;;;;;29.27;21.27;;;4.70;99.90;;;;;;5028262;28;20488;-73
2020/12/17 00:27:04;;;;;;;30.90;22.63;;;4.60;99.90;;;;;;5028199;28;20483;-73
2020/12/17 00:29:31;;;;;;;33.30;22.90;;;4.70;99.90;;;;;;5028438;28;21141;-73
2020/12/17 00:31:57;;;;;;;37.27;22.77;;;4.60;99.90;;;;;;5026939;28;20453;-73
2020/12/17 00:34:23;;;;;;;32.77;21.90;;;4.60;99.90;;;;;;5027854;28;20552;-73
2020/12/17 00:36:52;;;;;;;28.07;20.37;;;4.60;99.90;;;;;;5028056;28;20457;-73
2020/12/17 00:39:20;;;;;;;30.30;21.53;;;4.60;99.90;;;;;;5028957;28;21074;-73
2020/12/17 00:41:47;;;;;;;28.60;20.00;;;4.60;99.90;;;;;;5028277;28;20473;-74
2020/12/17 00:44:13;;;;;;;30.40;20.50;;;4.60;99.90;;;;;;5030448;28;20540;-73
2020/12/17 00:46:39;;;;;;;31.23;21.70;;;4.50;99.90;;;;;;5029241;28;20853;-73
2020/12/17 00:49:06;;;;;;;28.73;21.73;;;4.50;99.90;;;;;;5028743;28;20457;-74
2020/12/17 00:51:32;;;;;;;27.67;19.83;;;4.50;99.90;;;;;;5028220;28;20453;-73
2020/12/17 00:53:59;;;;;;;30.67;21.23;;;4.50;99.90;;;;;;5028824;28;20997;-73
2020/12/17 00:56:26;;;;;;;26.37;19.03;;;4.50;99.90;;;;;;5028746;28;20592;-73
2020/12/17 00:58:52;;;;;;;29.80;21.07;;;4.50;99.90;;;;;;5028617;28;20963;-73
2020/12/17 01:01:19;;;;;;;29.03;19.90;;;4.50;99.90;;;;;;5027806;28;20957;-73
2020/12/17 01:03:45;;;;;;;30.73;22.17;;;4.50;99.90;;;;;;5028690;28;20492;-73
2020/12/17 01:06:11;;;;;;;30.93;21.17;;;4.40;99.90;;;;;;5028824;28;20540;-74
2020/12/17 01:08:38;;;;;;;25.00;19.37;;;4.50;99.90;;;;;;5028568;28;20536;-74
2020/12/17 01:11:04;;;;;;;26.17;18.90;;;4.40;99.90;;;;;;5027884;28;20476;-73
2020/12/17 01:13:31;;;;;;;33.87;21.20;;;4.40;99.90;;;;;;5028405;28;20544;-74
2020/12/17 01:15:58;;;;;;;27.23;19.27;;;4.30;99.90;;;;;;5028257;28;20577;-74
2020/12/17 01:18:24;;;;;;;26.93;19.63;;;4.20;99.90;;;;;;5028711;28;20497;-74
2020/12/17 01:20:51;;;;;;;23.80;19.23;;;4.20;99.90;;;;;;5028076;28;20874;-74
2020/12/17 01:23:17;;;;;;;24.80;18.03;;;4.10;99.90;;;;;;5028484;28;20555;-73
2020/12/17 01:25:44;;;;;;;25.30;18.70;;;4.10;99.90;;;;;;5028510;28;20522;-74
2020/12/17 01:28:13;;;;;;;24.30;17.90;;;4.10;99.90;;;;;;5028326;28;20532;-74
2020/12/17 01:30:40;;;;;;;24.93;18.27;;;4.00;99.90;;;;;;5027672;28;20875;-74
2020/12/17 01:33:07;;;;;;;23.27;18.27;;;4.00;99.90;;;;;;5028428;28;20489;-73
2020/12/17 01:35:34;;;;;;;24.90;19.10;;;4.00;99.90;;;;;;5028458;28;20484;-73
2020/12/17 01:38:00;;;;;;;27.20;20.50;;;3.90;99.90;;;;;;5028345;28;20536;-73
2020/12/17 01:40:27;;;;;;;25.23;18.57;;;3.90;99.90;;;;;;5027637;28;21030;-73
2020/12/17 01:42:53;;;;;;;24.90;19.23;;;3.90;99.90;;;;;;5028202;28;20445;-73
2020/12/17 01:45:19;;;;;;;25.37;19.30;;;3.90;99.90;;;;;;5028197;28;20437;-73
2020/12/17 01:47:48;;;;;;;27.73;20.57;;;3.80;99.90;;;;;;5028383;28;20457;-73
2020/12/17 01:50:14;;;;;;;28.63;22.70;;;3.80;99.90;;;;;;5027769;28;21064;-72
2020/12/17 01:52:41;;;;;;;25.90;20.70;;;3.80;99.90;;;;;;5028410;28;20540;-74
2020/12/17 01:55:07;;;;;;;28.13;21.63;;;3.80;99.90;;;;;;5028059;28;20489;-73
2020/12/17 01:57:36;;;;;;;28.93;19.70;;;3.90;99.90;;;;;;5028096;28;20569;-73
2020/12/17 02:00:06;;;;;;;24.43;20.20;;;3.80;99.90;;;;;;5027565;28;20452;-73
2020/12/17 02:02:33;;;;;;;26.30;19.23;;;3.80;99.90;;;;;;5028377;28;20858;-73
2020/12/17 02:05:02;;;;;;;22.87;18.00;;;3.70;99.90;;;;;;5028172;28;20456;-74
2020/12/17 02:07:29;;;;;;;27.67;18.50;;;3.60;99.90;;;;;;5028117;28;20954;-73
2020/12/17 02:09:55;;;;;;;24.70;19.43;;;3.60;99.90;;;;;;5027626;28;20448;-74
2020/12/17 02:12:22;;;;;;;26.33;19.07;;;3.50;99.90;;;;;;5026697;28;20539;-73
2020/12/17 02:14:48;;;;;;;25.03;18.60;;;3.40;99.90;;;;;;5028109;28;20979;-72
2020/12/17 02:17:14;;;;;;;21.97;17.20;;;3.40;99.90;;;;;;5030980;28;20930;-74
2020/12/17 02:19:41;;;;;;;24.27;18.00;;;3.40;99.90;;;;;;5031660;28;20543;-73
2020/12/17 02:22:08;;;;;;;26.20;19.93;;;3.40;99.90;;;;;;5030957;28;20461;-74
2020/12/17 02:24:35;;;;;;;22.60;17.23;;;3.40;99.90;;;;;;5033513;28;20469;-74
2020/12/17 02:27:02;;;;;;;28.97;19.07;;;3.40;99.90;;;;;;5035805;28;20528;-74
2020/12/17 02:29:28;;;;;;;28.87;19.23;;;3.30;99.90;;;;;;5036855;28;20479;-74
2020/12/17 02:31:54;;;;;;;28.60;21.00;;;3.30;99.90;;;;;;5032994;28;20540;-73
2020/12/17 02:34:21;;;;;;;27.30;20.30;;;3.20;99.90;;;;;;5034614;28;20469;-74
2020/12/17 02:36:47;;;;;;;24.43;18.40;;;3.10;99.90;;;;;;5035476;28;20552;-74
2020/12/17 02:39:14;;;;;;;25.87;19.37;;;3.10;99.90;;;;;;5037478;28;20980;-74
2020/12/17 02:41:41;;;;;;;27.30;20.83;;;3.10;99.90;;;;;;5030410;28;20967;-73
2020/12/17 02:44:07;;;;;;;26.83;20.37;;;3.10;99.90;;;;;;5031180;28;20556;-73
2020/12/17 02:46:33;;;;;;;26.60;20.87;;;3.10;99.90;;;;;;5031113;28;20528;-73
2020/12/17 02:49:00;;;;;;;27.87;22.10;;;3.10;99.90;;;;;;5030990;28;20953;-73
2020/12/17 02:51:26;;;;;;;32.00;21.20;;;3.20;99.90;;;;;;5030293;28;20453;-74
2020/12/17 02:53:53;;;;;;;36.13;22.73;;;3.30;99.90;;;;;;5030955;28;20463;-73
2020/12/17 02:56:19;;;;;;;32.00;23.60;;;3.30;99.90;;;;;;5030671;28;20487;-74
2020/12/17 02:58:46;;;;;;;29.50;21.43;;;3.30;99.90;;;;;;5030985;28;20453;-74
2020/12/17 03:01:13;;;;;;;30.80;21.90;;;3.30;99.90;;;;;;5030299;28;20453;-73
2020/12/17 03:03:39;;;;;;;23.03;19.30;;;3.30;99.90;;;;;;5030653;28;20551;-74
2020/12/17 03:06:06;;;;;;;33.63;21.43;;;3.20;99.90;;;;;;5030698;28;20472;-74
2020/12/17 03:08:33;;;;;;;28.20;20.73;;;3.20;99.90;;;;;;5029820;28;20449;-74
2020/12/17 03:11:00;;;;;;;24.80;18.73;;;3.10;99.90;;;;;;5028769;28;20532;-75
2020/12/17 03:13:26;;;;;;;32.50;21.13;;;3.10;99.90;;;;;;5030280;28;21137;-74
2020/12/17 03:15:53;;;;;;;24.20;20.20;;;3.10;99.90;;;;;;5030513;28;20477;-74
2020/12/17 03:18:20;;;;;;;25.93;19.87;;;3.00;99.90;;;;;;5030563;28;20436;-74
2020/12/17 03:20:46;;;;;;;25.90;18.70;;;2.90;99.90;;;;;;5029533;28;20449;-74
2020/12/17 03:23:13;;;;;;;25.67;19.80;;;2.90;99.90;;;;;;5030465;28;20465;-74
2020/12/17 03:25:39;;;;;;;27.17;20.23;;;2.90;99.90;;;;;;5030517;28;20532;-74
2020/12/17 03:28:05;;;;;;;29.20;19.93;;;2.90;99.90;;;;;;5029414;28;20515;-74
2020/12/17 03:30:32;;;;;;;31.03;20.33;;;2.90;99.90;;;;;;5029588;28;20551;-74
2020/12/17 03:32:59;;;;;;;23.03;18.80;;;2.90;99.90;;;;;;5030334;28;20535;-74
2020/12/17 03:35:26;;;;;;;24.37;19.23;;;2.90;99.90;;;;;;5029884;28;20584;-74
2020/12/17 03:37:57;;;;;;;24.90;19.30;;;2.80;99.90;;;;;;5030503;28;20459;-74
2020/12/17 03:40:24;;;;;;;26.83;19.20;;;2.80;99.90;;;;;;5029601;28;20453;-74
2020/12/17 03:42:51;;;;;;;23.20;18.27;;;2.80;99.90;;;;;;5030518;28;20511;-73
2020/12/17 03:45:17;;;;;;;25.33;19.70;;;2.80;99.90;;;;;;5030209;28;20469;-75
2020/12/17 03:47:43;;;;;;;26.70;20.17;;;2.80;99.90;;;;;;5030053;28;21001;-74
2020/12/17 03:50:11;;;;;;;30.00;19.50;;;2.80;99.90;;;;;;5029078;28;20451;-75
2020/12/17 03:52:37;;;;;;;30.10;20.93;;;2.80;99.90;;;;;;5029956;28;20552;-74
2020/12/17 03:55:04;;;;;;;24.87;18.93;;;2.80;99.90;;;;;;5029266;28;20572;-75
2020/12/17 03:57:31;;;;;;;33.23;19.57;;;2.80;99.90;;;;;;5029045;28;21081;-75
2020/12/17 03:59:57;;;;;;;28.40;21.60;;;2.90;99.90;;;;;;5028668;28;21156;-75
2020/12/17 04:02:24;;;;;;;28.30;21.00;;;2.90;99.90;;;;;;5029006;28;20881;-74
2020/12/17 04:04:50;;;;;;;26.50;19.50;;;2.90;99.90;;;;;;5028882;28;20509;-75
2020/12/17 04:07:17;;;;;;;27.27;21.40;;;2.90;99.90;;;;;;5029112;28;20540;-75
2020/12/17 04:09:44;;;;;;;26.40;20.60;;;2.90;99.90;;;;;;5029457;28;20449;-75
2020/12/17 04:12:10;;;;;;;25.87;18.00;;;2.90;99.90;;;;;;5028091;28;20541;-75
2020/12/17 04:14:37;;;;;;;25.43;19.50;;;2.90;99.90;;;;;;5028653;28;20556;-75
2020/12/17 04:17:03;;;;;;;26.20;20.03;;;2.80;99.90;;;;;;5028280;28;21011;-74
2020/12/17 04:19:30;;;;;;;25.80;18.07;;;2.80;99.90;;;;;;5028648;28;20510;-74
2020/12/17 04:21:56;;;;;;;27.43;19.93;;;2.70;99.90;;;;;;5027895;28;20448;-75
2020/12/17 04:24:23;;;;;;;26.80;19.60;;;2.70;99.90;;;;;;5028278;28;20546;-75
2020/12/17 04:26:50;;;;;;;25.63;19.83;;;2.70;99.90;;;;;;5028542;28;20453;-75
2020/12/17 04:29:17;;;;;;;25.90;19.70;;;2.60;99.90;;;;;;5029031;28;20547;-75
2020/12/17 04:31:43;;;;;;;24.13;19.43;;;2.60;99.90;;;;;;5028029;28;20453;-75
2020/12/17 04:34:09;;;;;;;26.20;19.10;;;2.70;99.90;;;;;;5028262;28;20504;-75
2020/12/17 04:36:36;;;;;;;32.10;18.47;;;2.70;99.90;;;;;;5028170;28;20489;-75
2020/12/17 04:39:04;;;;;;;29.60;21.23;;;2.70;99.90;;;;;;5028932;28;20487;-74
2020/12/17 04:41:32;;;;;;;31.50;21.17;;;2.80;99.90;;;;;;5028736;28;20533;-75
2020/12/17 04:43:59;;;;;;;31.37;21.63;;;2.90;99.90;;;;;;5028278;28;21241;-75
2020/12/17 04:46:26;;;;;;;26.10;19.83;;;2.90;99.90;;;;;;5028155;28;21074;-74
2020/12/17 04:48:54;;;;;;;29.23;22.37;;;2.90;99.90;;;;;;5028459;28;20456;-75
2020/12/17 04:51:21;;;;;;;28.30;21.80;;;2.90;99.90;;;;;;5027859;28;20921;-74
2020/12/17 04:53:50;;;;;;;29.03;21.30;;;2.80;99.90;;;;;;5028385;28;20507;-73
2020/12/17 04:56:18;;;;;;;27.17;19.60;;;2.80;99.90;;;;;;5028306;28;21100;-74
2020/12/17 04:58:47;;;;;;;29.57;20.50;;;2.80;99.90;;;;;;5028203;28;20536;-74
2020/12/17 05:01:15;;;;;;;23.97;19.40;;;2.80;99.90;;;;;;5027418;28;20671;-74
2020/12/17 05:03:46;;;;;;;25.87;18.50;;;2.70;99.90;;;;;;5028182;28;20467;-73
2020/12/17 05:06:18;;;;;;;23.53;18.33;;;2.70;99.90;;;;;;5028377;28;20548;-74
2020/12/17 05:08:45;;;;;;;28.33;18.60;;;2.70;99.90;;;;;;5028637;28;20489;-74
2020/12/17 05:11:11;;;;;;;30.37;20.77;;;2.80;99.90;;;;;;5027554;28;20580;-75
2020/12/17 05:13:38;;;;;;;24.77;18.47;;;2.90;99.90;;;;;;5028005;28;20473;-74
2020/12/17 05:16:05;;;;;;;26.80;19.70;;;3.00;99.90;;;;;;5028044;28;20569;-74
2020/12/17 05:18:32;;;;;;;27.50;19.00;;;3.00;99.90;;;;;;5027978;28;20456;-75
2020/12/17 05:20:59;;;;;;;27.37;20.00;;;3.10;99.90;;;;;;5027558;28;20445;-74
2020/12/17 05:23:26;;;;;;;26.37;20.80;;;3.30;99.90;;;;;;5028049;28;21126;-74
2020/12/17 05:25:52;;;;;;;30.30;22.00;;;3.40;99.90;;;;;;5028484;28;20437;-74
2020/12/17 05:28:19;;;;;;;32.00;20.07;;;3.40;99.90;;;;;;5027784;28;20544;-74
2020/12/17 05:30:45;;;;;;;27.90;20.90;;;3.50;99.90;;;;;;5027101;28;20540;-74
2020/12/17 05:33:13;;;;;;;28.67;20.23;;;3.60;99.90;;;;;;5028010;28;20476;-75
2020/12/17 05:35:42;;;;;;;26.30;20.50;;;3.60;99.90;;;;;;5027794;28;20568;-74
2020/12/17 05:38:09;;;;;;;26.50;21.07;;;3.70;99.90;;;;;;5027808;28;20528;-74
2020/12/17 05:40:37;;;;;;;26.83;18.73;;;3.80;99.90;;;;;;5027253;28;20543;-75
2020/12/17 05:43:04;;;;;;;23.20;19.33;;;3.80;99.90;;;;;;5027525;28;20715;-74
2020/12/17 05:45:31;;;;;;;25.60;18.47;;;3.90;99.90;;;;;;5027895;28;21104;-74
2020/12/17 05:48:08;;;;;;;24.60;18.37;;;3.90;99.90;;;;;;5028008;28;20540;-75
2020/12/17 05:50:35;;;;;;;24.90;18.20;;;3.90;99.90;;;;;;5028448;28;20526;-73
2020/12/17 05:53:03;;;;;;;23.07;17.53;;;3.90;99.90;;;;;;5032111;28;20543;-73
2020/12/17 05:55:31;;;;;;;24.77;18.50;;;3.90;99.90;;;;;;5032040;28;20484;-74
2020/12/17 05:57:58;;;;;;;25.10;18.30;;;3.90;99.90;;;;;;5031946;28;20899;-74
2020/12/17 06:00:24;;;;;;;20.37;16.97;;;3.90;99.90;;;;;;5031457;28;20902;-73
2020/12/17 06:02:51;;;;;;;22.23;17.40;;;3.90;99.90;;;;;;5031993;28;20997;-73
2020/12/17 06:05:21;;;;;;;21.70;16.63;;;3.90;99.90;;;;;;5031785;28;20630;-75
2020/12/17 06:07:50;;;;;;;22.50;16.13;;;3.90;99.90;;;;;;5031799;28;20463;-75
2020/12/17 06:10:18;;;;;;;20.47;15.73;;;3.80;99.90;;;;;;5031276;28;20453;-73
2020/12/17 06:12:45;;;;;;;24.40;18.07;;;3.80;99.90;;;;;;5031871;28;20562;-74
2020/12/17 06:15:17;;;;;;;17.50;15.23;;;3.80;99.90;;;;;;5031659;28;20468;-74
2020/12/17 06:17:48;;;;;;;18.67;15.33;;;3.90;99.90;;;;;;5031463;28;20831;-73
2020/12/17 06:20:16;;;;;;;22.17;17.50;;;3.90;99.90;;;;;;5030760;28;20522;-75
2020/12/17 06:22:49;;;;;;;22.17;16.40;;;3.90;99.90;;;;;;5031563;28;20453;-74
2020/12/17 06:25:17;;;;;;;18.50;15.80;;;3.90;99.90;;;;;;5031577;28;20547;-73
2020/12/17 06:27:46;;;;;;;20.90;15.43;;;3.80;99.90;;;;;;5031532;28;20813;-73
2020/12/17 06:30:16;;;;;;;22.13;16.60;;;3.80;99.90;;;;;;5030695;28;20563;-74
2020/12/17 06:32:43;;;;;;;18.50;15.23;;;3.70;99.90;;;;;;5031586;28;20870;-74
2020/12/17 06:35:21;;;;;;;19.80;15.97;;;3.70;99.90;;;;;;5031635;28;20476;-74
2020/12/17 06:37:48;;;;;;;22.63;16.37;;;3.70;99.90;;;;;;5032989;28;20449;-74
2020/12/17 06:40:26;;;;;;;20.17;16.87;;;3.70;99.90;;;;;;5032854;28;20535;-74
2020/12/17 06:42:53;;;;;;;17.43;15.50;;;3.70;99.90;;;;;;5031320;28;20549;-74
2020/12/17 06:45:26;;;;;;;19.33;15.50;;;3.80;99.90;;;;;;5031368;28;20449;-74
2020/12/17 06:47:53;;;;;;;20.07;15.40;;;3.80;99.90;;;;;;5031354;28;20480;-74
2020/12/17 06:50:21;;;;;;;19.57;16.33;;;3.80;99.90;;;;;;5030669;28;20536;-73
2020/12/17 06:53:14;;;;;;;22.67;17.37;;;3.90;99.90;;;;;;5031110;28;20449;-74
2020/12/17 06:55:45;;;;;;;24.73;18.90;;;3.80;99.90;;;;;;4984347;28;20485;-75
2020/12/17 06:58:18;;;;;;;22.63;19.50;;;3.80;99.90;;;;;;5030895;28;20825;-76
2020/12/17 07:00:45;;;;;;;22.40;16.87;;;3.80;99.90;;;;;;5030368;28;20452;-74
2020/12/17 07:03:12;;;;;;;22.00;16.70;;;3.80;99.90;;;;;;5031027;28;20646;-75
2020/12/17 07:05:39;;;;;;;22.70;16.70;;;3.90;99.90;;;;;;5032989;28;20531;-74
2020/12/17 07:08:05;;;;;;;20.57;16.23;;;3.90;99.90;;;;;;5034289;28;20449;-76
2020/12/17 07:10:32;;;;;;;20.70;16.87;;;4.00;99.90;;;;;;5031759;28;21086;-74
2020/12/17 07:13:00;;;;;;;24.37;16.30;;;4.10;99.90;;;;;;5030830;28;20536;-73
2020/12/17 07:15:32;;;;;;;21.83;15.87;;;4.20;99.90;;;;;;5030805;28;20488;-74
2020/12/17 07:18:23;;;;;;;20.53;15.57;;;4.30;99.90;;;;;;5030633;28;20573;-73
2020/12/17 07:20:54;;;;;;;20.80;15.50;;;4.40;99.90;;;;;;5010528;28;20448;-74
2020/12/17 07:23:21;;;;;;;19.03;14.33;;;4.50;99.90;;;;;;5030507;28;20555;-74
2020/12/17 07:25:54;;;;;;;19.03;14.07;;;4.60;99.90;;;;;;5030449;28;20484;-76
2020/12/17 07:28:26;;;;;;;21.00;14.80;;;4.60;99.90;;;;;;5030366;28;20524;-75
2020/12/17 07:30:54;;;;;;;16.57;14.33;;;4.70;99.90;;;;;;5029795;28;20441;-74
2020/12/17 07:33:42;;;;;;;19.33;14.63;;;4.70;99.90;;;;;;5030123;28;20971;-74
2020/12/17 07:36:10;;;;;;;15.00;12.60;;;4.80;99.90;;;;;;5024370;28;20485;-74
2020/12/17 07:38:37;;;;;;;14.57;12.03;;;4.80;99.90;;;;;;5030170;28;20449;-74
2020/12/17 07:41:04;;;;;;;16.77;12.67;;;4.90;99.90;;;;;;5029387;28;20449;-73
2020/12/17 07:43:41;;;;;;;13.27;11.40;;;4.90;99.90;;;;;;5029968;28;20559;-74
2020/12/17 07:46:08;;;;;;;14.53;11.77;;;4.90;99.90;;;;;;5030254;28;20884;-74
2020/12/17 07:48:40;;;;;;;14.17;12.33;;;4.90;99.90;;;;;;5030047;28;20445;-74
2020/12/17 07:51:09;;;;;;;13.07;11.77;;;5.00;99.90;;;;;;5029432;28;20467;-76
2020/12/17 07:53:37;;;;;;;13.07;11.40;;;5.00;99.90;;;;;;5029836;28;20508;-74
2020/12/17 07:56:05;;;;;;;13.83;11.40;;;5.00;99.90;;;;;;5030019;28;20480;-74
2020/12/17 07:58:31;;;;;;;12.90;11.57;;;5.00;99.90;;;;;;5029736;28;21042;-74
2020/12/17 08:00:59;;;;;;;12.47;10.70;;;5.00;99.90;;;;;;5029297;28;20459;-74
2020/12/17 08:03:27;;;;;;;13.67;11.10;;;5.00;99.90;;;;;;5033874;28;20483;-75
2020/12/17 08:06:04;;;;;;;15.47;12.40;;;4.90;99.90;;;;;;5034731;28;20951;-74
2020/12/17 08:08:31;;;;;;;12.53;11.07;;;5.00;99.90;;;;;;5033105;28;20455;-74
2020/12/17 08:10:58;;;;;;;12.90;11.43;;;5.10;99.90;;;;;;5029017;28;20556;-75
2020/12/17 08:13:26;;;;;;;14.83;11.53;;;5.20;99.90;;;;;;5028985;28;20473;-74
2020/12/17 08:15:53;;;;;;;12.90;11.10;;;5.30;99.90;;;;;;5029386;28;20537;-75
2020/12/17 08:18:25;;;;;;;13.57;11.07;;;5.40;99.90;;;;;;5029748;28;20528;-73
2020/12/17 08:21:07;;;;;;;13.93;10.80;;;5.50;99.90;;;;;;5028644;28;20570;-76
2020/12/17 08:23:34;;;;;;;11.60;9.80;;;5.60;99.90;;;;;;5029339;28;20469;-75
2020/12/17 08:26:01;;;;;;;11.60;9.27;;;5.60;99.90;;;;;;5029469;28;20477;-73
2020/12/17 08:28:32;;;;;;;10.83;9.33;;;5.60;99.90;;;;;;5027698;28;20440;-74
2020/12/17 08:31:04;;;;;;;10.37;9.27;;;5.60;99.90;;;;;;5028694;28;20995;-74
2020/12/17 08:33:32;;;;;;;10.60;9.50;;;5.50;99.90;;;;;;5017392;28;20537;-74
2020/12/17 08:36:04;;;;;;;11.47;9.90;;;5.50;99.90;;;;;;5009522;28;20568;-73
2020/12/17 08:38:30;;;;;;;13.90;9.70;;;5.60;99.90;;;;;;5009400;28;20532;-72
2020/12/17 08:40:58;;;;;;;11.20;10.00;;;5.60;99.90;;;;;;5007718;28;20495;-76
2020/12/17 08:43:28;;;;;;;13.13;8.60;;;5.80;99.90;;;;;;5008347;28;20469;-73
2020/12/17 08:45:57;;;;;;;12.40;9.87;;;5.80;99.90;;;;;;5009075;28;20442;-74
2020/12/17 08:48:23;;;;;;;10.10;8.43;;;5.90;99.90;;;;;;5009286;28;20453;-73
2020/12/17 08:50:52;;;;;;;10.57;9.17;;;6.00;99.90;;;;;;5008630;28;20811;-74
2020/12/17 08:53:19;;;;;;;9.80;8.20;;;6.10;99.90;;;;;;5009182;28;20469;-73
2020/12/17 08:55:59;;;;;;;10.33;8.83;;;6.20;99.90;;;;;;5008938;28;21086;-73
2020/12/17 08:58:26;;;;;;;9.93;8.10;;;6.30;99.90;;;;;;5009085;28;20549;-74
2020/12/17 09:00:52;;;;;;;9.70;8.30;;;6.40;99.90;;;;;;5008379;28;20878;-73
2020/12/17 09:03:19;;;;;;;10.70;7.97;;;6.50;99.90;;;;;;5009074;28;20494;-72
2020/12/17 09:06:00;;;;;;;11.97;7.47;;;6.70;99.90;;;;;;5008805;28;20964;-72
2020/12/17 09:08:27;;;;;;;9.27;7.33;;;6.70;99.90;;;;;;5009042;28;20511;-74
2020/12/17 09:10:53;;;;;;;8.20;7.40;;;6.80;99.90;;;;;;5008136;28;20532;-72
2020/12/17 09:13:20;;;;;;;8.53;7.63;;;6.80;99.90;;;;;;5008944;28;20607;-71
2020/12/17 09:15:58;;;;;;;9.53;8.53;;;6.80;99.90;;;;;;5008766;28;20494;-71
2020/12/17 09:18:24;;;;;;;8.90;7.90;;;6.70;99.90;;;;;;5008688;28;20529;-70
2020/12/17 09:21:06;;;;;;;7.90;7.07;;;6.70;99.90;;;;;;5008106;28;20458;-72
2020/12/17 09:23:33;;;;;;;10.43;8.27;;;6.60;99.90;;;;;;5007704;28;20468;-73
2020/12/17 09:26:13;;;;;;;10.20;7.83;;;6.60;99.90;;;;;;5012399;28;20541;-73
2020/12/17 09:28:49;;;;;;;8.83;7.80;;;6.50;99.90;;;;;;5014853;28;20517;-71
2020/12/17 09:31:20;;;;;;;8.00;7.20;;;6.60;99.90;;;;;;5027426;28;20530;-72
2020/12/17 09:33:46;;;;;;;8.70;7.70;;;6.60;99.90;;;;;;5050254;28;20543;-71
2020/12/17 09:36:18;;;;;;;9.23;7.50;;;6.70;99.90;;;;;;5051677;28;20582;-72
2020/12/17 09:38:44;;;;;;;10.10;7.43;;;6.70;99.90;;;;;;5013045;28;20842;-67
2020/12/17 09:41:11;;;;;;;7.87;6.57;;;6.80;99.90;;;;;;5020624;28;20472;-70
2020/12/17 09:43:47;;;;;;;8.13;7.33;;;6.90;99.90;;;;;;5011123;28;20549;-74
2020/12/17 09:46:14;;;;;;;7.60;6.80;;;6.90;99.90;;;;;;5014544;28;20997;-70
2020/12/17 09:48:40;;;;;;;8.17;7.20;;;7.00;99.90;;;;;;5031094;28;20562;-69
2020/12/17 09:51:08;;;;;;;7.10;6.43;;;7.10;99.90;;;;;;5029759;28;20878;-72
2020/12/17 09:53:41;;;;;;;8.10;6.70;;;7.10;99.90;;;;;;5029892;28;20519;-71
2020/12/17 09:56:09;;;;;;;7.50;6.80;;;7.20;99.90;;;;;;5030223;28;20484;-71
2020/12/17 09:58:36;;;;;;;8.37;7.57;;;7.20;99.90;;;;;;5031056;28;20460;-71
2020/12/17 10:01:03;;;;;;;9.40;7.67;;;7.30;99.90;;;;;;5027947;28;20488;-72
2020/12/17 10:03:29;;;;;;;8.90;7.07;;;7.30;99.90;;;;;;5036422;28;21057;-72
2020/12/17 10:05:56;;;;;;;8.00;6.93;;;7.30;99.90;;;;;;5032222;28;20560;-72
2020/12/17 10:08:22;;;;;;;8.37;6.60;;;7.60;99.90;;;;;;5038860;28;20463;-72
2020/12/17 10:10:49;;;;;;;7.90;6.87;;;7.80;99.90;;;;;;5047776;28;20519;-72
2020/12/17 10:13:16;;;;;;;8.03;6.50;;;8.00;99.90;;;;;;5050380;28;20865;-72
2020/12/17 10:15:42;;;;;;;7.27;6.17;;;8.20;99.90;;;;;;5049699;28;20479;-73
2020/12/17 10:18:08;;;;;;;7.50;6.47;;;8.50;99.90;;;;;;5050624;28;20894;-72
2020/12/17 10:20:35;;;;;;;10.20;6.10;;;8.90;99.90;;;;;;5049789;28;20444;-72
2020/12/17 10:23:01;;;;;;;9.60;7.70;;;9.20;99.90;;;;;;5051082;28;20440;-72
2020/12/17 10:25:27;;;;;;;7.03;6.33;;;9.30;99.90;;;;;;5051245;28;20463;-72
2020/12/17 10:27:58;;;;;;;7.70;7.00;;;9.20;99.90;;;;;;5050651;28;20451;-72
2020/12/17 10:30:25;;;;;;;8.67;6.83;;;9.20;99.90;;;;;;5050218;28;20455;-73
2020/12/17 10:32:51;;;;;;;8.93;8.03;;;9.20;99.90;;;;;;5041034;28;20486;-73
2020/12/17 10:35:18;;;;;;;8.00;6.60;;;9.20;99.90;;;;;;5041570;28;20490;-72
2020/12/17 10:37:44;;;;;;;7.63;6.07;;;9.70;99.90;;;;;;5047773;28;21095;-73
2020/12/17 10:40:12;;;;;;;9.23;5.73;;;10.00;99.90;;;;;;5049882;28;20931;-73
2020/12/17 10:42:39;;;;;;;9.13;6.40;;;9.90;99.90;;;;;;5048404;28;20447;-73
2020/12/17 10:45:07;;;;;;;7.80;6.80;;;9.80;99.90;;;;;;5049061;28;20567;-73
2020/12/17 10:47:34;;;;;;;6.70;6.00;;;9.60;99.90;;;;;;5033621;28;20798;-73
2020/12/17 10:50:00;;;;;;;9.93;7.17;;;9.40;99.90;;;;;;5029255;28;20819;-71
2020/12/17 10:52:27;;;;;;;6.87;6.17;;;9.40;99.90;;;;;;5030218;28;20556;-70
2020/12/17 10:54:53;;;;;;;6.37;5.73;;;9.30;99.90;;;;;;5029707;28;20555;-72
2020/12/17 10:57:20;;;;;;;7.40;6.40;;;9.20;99.90;;;;;;5025416;28;20476;-73
2020/12/17 10:59:47;;;;;;;8.97;6.77;;;9.20;99.90;;;;;;5040021;28;20503;-70
2020/12/17 11:02:14;;;;;;;8.33;6.43;;;9.30;99.90;;;;;;5043547;28;20567;-72
2020/12/17 11:04:40;;;;;;;7.03;6.20;;;9.30;99.90;;;;;;5029096;28;20468;-71
2020/12/17 11:07:07;;;;;;;8.97;6.20;;;9.30;99.90;;;;;;5029640;28;20934;-70
2020/12/17 11:09:33;;;;;;;6.90;6.03;;;9.40;99.90;;;;;;5028764;28;20536;-71
2020/12/17 11:12:00;;;;;;;6.37;5.30;;;9.60;99.90;;;;;;5029107;28;20459;-73
2020/12/17 11:14:26;;;;;;;8.83;6.77;;;9.70;99.90;;;;;;5030631;28;20461;-73
2020/12/17 11:16:54;;;;;;;7.33;6.33;;;9.70;99.90;;;;;;5030632;28;20488;-71
2020/12/17 11:19:21;;;;;;;7.23;5.90;;;9.70;99.90;;;;;;5023979;28;20985;-74
2020/12/17 11:21:47;;;;;;;10.87;6.50;;;9.80;99.90;;;;;;5021444;28;20540;-69
2020/12/17 11:24:14;;;;;;;6.50;5.70;;;9.80;99.90;;;;;;5021177;28;20620;-71
2020/12/17 11:26:43;;;;;;;6.10;5.50;;;9.70;99.90;;;;;;5026115;28;20449;-71
2020/12/17 11:29:10;;;;;;;9.37;6.40;;;9.60;99.90;;;;;;5024798;28;20930;-71
2020/12/17 11:31:37;;;;;;;8.90;7.07;;;9.60;99.90;;;;;;5031603;28;20444;-72
2020/12/17 11:34:03;;;;;;;6.93;6.23;;;9.70;99.90;;;;;;5040203;28;20491;-73
2020/12/17 11:36:31;;;;;;;7.40;6.70;;;10.00;99.90;;;;;;5039450;28;20600;-71
2020/12/17 11:38:57;;;;;;;8.50;6.20;;;10.20;99.90;;;;;;5029291;28;20451;-71
2020/12/17 11:41:24;;;;;;;6.93;5.90;;;10.40;99.90;;;;;;5023780;28;20469;-71
2020/12/17 11:43:50;;;;;;;9.10;5.40;;;10.60;99.90;;;;;;5034990;28;20469;-72
2020/12/17 11:46:20;;;;;;;7.60;5.80;;;10.70;99.90;;;;;;5031641;28;20990;-71
2020/12/17 11:48:47;;;;;;;6.50;5.80;;;10.80;99.90;;;;;;5031539;28;20817;-72
2020/12/17 11:51:14;;;;;;;6.47;5.53;;;10.90;99.90;;;;;;5034349;28;20444;-72
2020/12/17 11:53:41;;;;;;;8.97;7.50;;;10.80;99.90;;;;;;5037811;28;20495;-72
2020/12/17 11:56:11;;;;;;;10.20;8.80;;;10.70;99.90;;;;;;5038569;28;20490;-72
2020/12/17 11:58:37;;;;;;;9.50;7.70;;;10.60;99.90;;;;;;5030101;28;20533;-74
2020/12/17 12:01:04;;;;;;;9.03;8.13;;;10.60;99.90;;;;;;5025296;28;20532;-74
2020/12/17 12:03:30;;;;;;;13.17;9.63;;;10.60;99.90;;;;;;5021550;28;20544;-73
2020/12/17 12:05:59;;;;;;;8.77;6.97;;;10.60;99.90;;;;;;5014664;28;21201;-73
2020/12/17 12:08:26;;;;;;;8.07;7.10;;;10.70;99.90;;;;;;5018766;28;20457;-72
2020/12/17 12:10:53;;;;;;;8.67;7.77;;;10.90;99.90;;;;;;5034571;28;20535;-72
2020/12/17 12:13:19;;;;;;;7.90;6.90;;;11.00;99.90;;;;;;5046419;28;20472;-70
2020/12/17 12:15:48;;;;;;;10.90;7.37;;;11.00;99.90;;;;;;5046155;28;20469;-71
2020/12/17 12:18:14;;;;;;;9.13;7.27;;;11.00;99.90;;;;;;5046506;28;20470;-72
2020/12/17 12:20:41;;;;;;;9.17;6.90;;;11.00;99.90;;;;;;5045337;28;20883;-71
2020/12/17 12:23:07;;;;;;;10.80;6.90;;;11.00;99.90;;;;;;5046949;28;20898;-72
2020/12/17 12:25:35;;;;;;;8.20;7.40;;;11.00;99.90;;;;;;5046768;28;20535;-74
2020/12/17 12:28:03;;;;;;;12.10;7.57;;;10.90;99.90;;;;;;5046675;28;20452;-69
2020/12/17 12:30:29;;;;;;;8.97;7.00;;;11.00;99.90;;;;;;5047339;28;20955;-71
2020/12/17 12:32:56;;;;;;;8.23;6.93;;;11.10;99.90;;;;;;5043426;28;20453;-72
2020/12/17 12:35:22;;;;;;;9.93;7.20;;;11.00;99.90;;;;;;5028085;28;20464;-70
2020/12/17 12:37:49;;;;;;;9.57;7.30;;;10.90;99.90;;;;;;5028023;28;20572;-70
2020/12/17 12:40:15;;;;;;;8.57;7.47;;;10.70;99.90;;;;;;5026615;28;21554;-70
2020/12/17 12:42:41;;;;;;;11.13;8.67;;;10.60;99.90;;;;;;5027620;28;20480;-69